createdAt,value
2019-01-27T00:01:46.260Z,3.33
2019-01-27T00:04:14.494Z,3.77
2019-01-27T00:06:42.749Z,3.30
2019-01-27T00:09:10.977Z,3.57
2019-01-27T00:11:39.221Z,3.10
2019-01-27T00:14:07.457Z,2.57
2019-01-27T00:16:35.845Z,2.00
2019-01-27T00:19:04.085Z,1.93
2019-01-27T00:21:32.329Z,3.23
2019-01-27T00:24:00.565Z,4.40
2019-01-27T00:26:28.812Z,5.03
2019-01-27T00:28:57.045Z,3.23
2019-01-27T00:31:25.296Z,2.33
2019-01-27T00:33:53.524Z,3.47
2019-01-27T00:36:21.778Z,3.50
2019-01-27T00:38:50.013Z,2.83
2019-01-27T00:41:18.265Z,1.93
2019-01-27T00:43:46.834Z,2.53
2019-01-27T00:46:15.082Z,3.27
2019-01-27T00:48:43.977Z,2.83
2019-01-27T00:51:12.221Z,2.60
2019-01-27T00:53:40.457Z,4.90
2019-01-27T00:56:08.706Z,4.33
2019-01-27T00:58:36.945Z,1.87
2019-01-27T01:01:05.191Z,5.63
2019-01-27T01:03:33.425Z,2.37
2019-01-27T01:06:01.665Z,2.30
2019-01-27T01:08:29.893Z,2.20
2019-01-27T01:10:58.169Z,2.43
2019-01-27T01:13:26.409Z,4.23
2019-01-27T01:15:54.641Z,1.97
2019-01-27T01:18:22.893Z,2.07
2019-01-27T01:20:51.152Z,3.10
2019-01-27T01:23:19.384Z,1.93
2019-01-27T01:25:47.614Z,1.43
2019-01-27T01:28:15.862Z,3.17
2019-01-27T01:30:44.098Z,2.93
2019-01-27T01:33:12.344Z,1.53
2019-01-27T01:35:40.573Z,2.03
2019-01-27T01:38:09.396Z,3.07
2019-01-27T01:40:37.617Z,1.83
2019-01-27T01:43:05.866Z,3.97
2019-01-27T01:45:34.110Z,2.23
2019-01-27T01:48:02.354Z,2.10
2019-01-27T01:50:30.588Z,2.83
2019-01-27T01:52:58.837Z,1.53
2019-01-27T01:55:27.073Z,3.33
2019-01-27T01:57:55.314Z,2.73
2019-01-27T02:00:25.780Z,3.00
2019-01-27T02:02:54.029Z,2.53
2019-01-27T02:05:22.274Z,2.93
2019-01-27T02:07:50.517Z,1.47
2019-01-27T02:10:20.385Z,2.50
2019-01-27T02:12:49.243Z,3.43
2019-01-27T02:15:29.729Z,1.40
2019-01-27T02:17:57.982Z,2.10
2019-01-27T02:20:26.213Z,1.50
2019-01-27T02:22:54.478Z,1.83
2019-01-27T02:25:22.713Z,1.20
2019-01-27T02:27:50.950Z,3.57
2019-01-27T02:30:19.460Z,1.50
2019-01-27T02:32:47.694Z,2.23
2019-01-27T02:35:15.938Z,1.17
2019-01-27T02:37:44.170Z,1.37
2019-01-27T02:40:12.481Z,2.03
2019-01-27T02:42:40.750Z,1.40
2019-01-27T02:45:13.709Z,2.10
2019-01-27T02:47:41.941Z,1.97
2019-01-27T02:50:10.921Z,1.30
2019-01-27T02:52:39.160Z,1.60
2019-01-27T02:55:08.558Z,1.43
2019-01-27T02:57:36.867Z,3.17
2019-01-27T03:00:17.068Z,2.73
2019-01-27T03:02:45.313Z,1.73
2019-01-27T03:05:31.449Z,1.57
2019-01-27T03:07:59.692Z,2.07
2019-01-27T03:10:27.937Z,1.70
2019-01-27T03:12:56.169Z,1.20
2019-01-27T03:15:25.278Z,1.53
2019-01-27T03:17:53.521Z,1.23
2019-01-27T03:20:21.770Z,1.37
2019-01-27T03:22:50.029Z,1.63
2019-01-27T03:25:18.654Z,1.40
2019-01-27T03:27:46.883Z,1.20
2019-01-27T03:30:22.131Z,1.67
2019-01-27T03:32:50.388Z,2.13
2019-01-27T03:35:18.609Z,2.17
2019-01-27T03:37:46.852Z,2.30
2019-01-27T03:40:16.537Z,1.47
2019-01-27T03:42:44.782Z,1.73
2019-01-27T03:45:15.357Z,1.50
2019-01-27T03:47:43.600Z,2.50
2019-01-27T03:50:18.066Z,1.13
2019-01-27T03:52:46.320Z,2.83
2019-01-27T03:55:17.389Z,3.00
2019-01-27T03:57:45.631Z,1.47
2019-01-27T04:00:19.529Z,2.70
2019-01-27T04:02:47.786Z,1.00
2019-01-27T04:05:16.020Z,1.73
2019-01-27T04:07:44.537Z,1.97
2019-01-27T04:10:15.301Z,2.33
2019-01-27T04:12:43.550Z,1.20
2019-01-27T04:15:12.126Z,1.20
2019-01-27T04:17:40.372Z,1.20
2019-01-27T04:20:11.881Z,2.73
2019-01-27T04:22:40.109Z,2.53
2019-01-27T04:25:08.614Z,1.50
2019-01-27T04:27:37.029Z,1.23
2019-01-27T04:30:11.216Z,1.97
2019-01-27T04:32:39.446Z,1.67
2019-01-27T04:35:10.029Z,2.57
2019-01-27T04:37:38.270Z,3.50
2019-01-27T04:40:09.778Z,1.30
2019-01-27T04:42:38.351Z,1.13
2019-01-27T04:45:10.082Z,1.83
2019-01-27T04:47:38.663Z,2.50
2019-01-27T04:50:10.005Z,3.07
2019-01-27T04:52:38.241Z,2.47
2019-01-27T04:55:11.922Z,0.87
2019-01-27T04:57:40.216Z,1.30
2019-01-27T05:00:11.865Z,1.43
2019-01-27T05:02:41.733Z,2.43
2019-01-27T05:05:12.076Z,1.10
2019-01-27T05:07:40.306Z,1.90
2019-01-27T05:10:11.193Z,2.70
2019-01-27T05:12:39.429Z,1.53
2019-01-27T05:15:10.924Z,2.87
2019-01-27T05:17:39.161Z,1.00
2019-01-27T05:20:10.345Z,1.43
2019-01-27T05:22:38.582Z,1.87
2019-01-27T05:25:12.665Z,2.60
2019-01-27T05:27:40.900Z,0.90
2019-01-27T05:30:21.021Z,2.23
2019-01-27T05:32:49.248Z,1.90
2019-01-27T05:35:17.493Z,2.40
2019-01-27T05:37:45.726Z,2.20
2019-01-27T05:40:18.233Z,1.20
2019-01-27T05:42:46.466Z,1.10
2019-01-27T05:45:16.189Z,1.10
2019-01-27T05:47:44.421Z,1.67
2019-01-27T05:50:16.390Z,1.10
2019-01-27T05:52:44.625Z,1.77
2019-01-27T05:55:17.749Z,1.37
2019-01-27T05:57:46.000Z,1.00
2019-01-27T06:00:24.676Z,1.43
2019-01-27T06:02:52.911Z,1.50
2019-01-27T06:05:21.205Z,1.07
2019-01-27T06:07:49.437Z,1.70
2019-01-27T06:10:17.698Z,1.83
2019-01-27T06:12:45.912Z,2.07
2019-01-27T06:15:16.398Z,0.93
2019-01-27T06:17:44.633Z,1.20
2019-01-27T06:20:18.625Z,2.07
2019-01-27T06:22:46.865Z,3.33
2019-01-27T06:25:18.986Z,2.67
2019-01-27T06:27:47.215Z,1.17
2019-01-27T06:30:18.357Z,0.80
2019-01-27T06:32:51.597Z,1.33
2019-01-27T06:35:19.842Z,0.80
2019-01-27T06:37:48.074Z,2.20
2019-01-27T06:40:16.304Z,1.40
2019-01-27T06:42:44.536Z,2.23
2019-01-27T06:45:12.773Z,1.87
2019-01-27T06:47:41.018Z,0.87
2019-01-27T06:50:11.493Z,0.77
2019-01-27T06:52:39.733Z,1.57
2019-01-27T06:55:11.223Z,0.77
2019-01-27T06:57:39.466Z,0.80
2019-01-27T07:00:12.598Z,2.00
2019-01-27T07:02:41.620Z,0.87
2019-01-27T07:05:11.556Z,2.10
2019-01-27T07:07:57.664Z,1.43
2019-01-27T07:10:27.537Z,1.00
2019-01-27T07:13:15.790Z,1.43
2019-01-27T07:15:48.153Z,0.70
2019-01-27T07:18:27.094Z,1.13
2019-01-27T07:21:02.751Z,1.47
2019-01-27T07:23:32.637Z,1.40
2019-01-27T07:26:05.682Z,2.20
2019-01-27T07:28:41.308Z,1.07
2019-01-27T07:31:13.909Z,1.10
2019-01-27T07:33:46.513Z,0.70
2019-01-27T07:36:28.234Z,1.57
2019-01-27T07:38:58.118Z,0.73
2019-01-27T07:41:37.181Z,1.00
2019-01-27T07:44:15.846Z,3.73
2019-01-27T07:46:48.689Z,1.03
2019-01-27T07:49:18.570Z,1.67
2019-01-27T07:51:48.485Z,1.67
2019-01-27T07:54:27.386Z,1.50
2019-01-27T07:56:57.267Z,1.00
2019-01-27T07:59:32.938Z,3.27
2019-01-27T08:02:02.842Z,1.93
2019-01-27T08:04:32.711Z,1.97
2019-01-27T08:07:05.241Z,2.17
2019-01-27T08:09:51.643Z,1.53
2019-01-27T08:12:38.057Z,1.07
2019-01-27T08:15:22.889Z,2.20
2019-01-27T08:18:08.129Z,5.67
2019-01-27T08:20:53.965Z,5.40
2019-01-27T08:23:26.863Z,6.80
2019-01-27T08:25:59.814Z,5.40
2019-01-27T08:28:35.566Z,1.60
2019-01-27T08:31:08.349Z,9.88
2019-01-27T08:33:56.625Z,5.73
2019-01-27T08:36:32.258Z,11.47
2019-01-27T08:39:02.145Z,10.73
2019-01-27T08:41:48.518Z,6.17
2019-01-27T08:44:21.037Z,11.00
2019-01-27T08:46:50.744Z,10.47
2019-01-27T08:49:18.990Z,6.37
2019-01-27T08:51:47.221Z,5.37
2019-01-27T08:54:15.493Z,3.57
2019-01-27T08:56:43.728Z,3.03
2019-01-27T08:59:11.974Z,1.00
2019-01-27T09:01:53.594Z,2.53
2019-01-27T09:04:23.521Z,3.80
2019-01-27T09:07:09.905Z,3.23
2019-01-27T09:09:52.029Z,1.60
2019-01-27T09:12:30.633Z,5.63
2019-01-27T09:15:16.963Z,2.10
2019-01-27T09:18:03.591Z,4.07
2019-01-27T09:20:39.436Z,7.73
2019-01-27T09:23:15.045Z,7.50
2019-01-27T09:25:47.621Z,2.30
2019-01-27T09:28:20.429Z,6.17
2019-01-27T09:30:50.317Z,5.33
2019-01-27T09:33:36.637Z,2.43
2019-01-27T09:36:15.510Z,4.33
2019-01-27T09:38:51.161Z,4.40
2019-01-27T09:41:25.109Z,2.13
2019-01-27T09:44:11.151Z,4.43
2019-01-27T09:46:47.294Z,4.63
2019-01-27T09:49:17.170Z,1.87
2019-01-27T09:51:47.049Z,6.37
2019-01-27T09:54:17.175Z,8.43
2019-01-27T09:56:53.190Z,11.10
2019-01-27T09:59:25.766Z,3.97
2019-01-27T10:01:58.289Z,6.57
2019-01-27T10:04:37.172Z,5.10
2019-01-27T10:07:13.029Z,3.63
2019-01-27T10:09:58.918Z,4.10
2019-01-27T10:12:31.878Z,6.03
2019-01-27T10:15:10.486Z,4.83
2019-01-27T10:17:43.082Z,3.33
2019-01-27T10:20:29.400Z,5.87
2019-01-27T10:23:15.765Z,3.97
2019-01-27T10:25:57.608Z,6.10
2019-01-27T10:28:42.513Z,6.27
2019-01-27T10:31:24.643Z,5.20
2019-01-27T10:33:57.521Z,4.73
2019-01-27T10:36:30.653Z,6.07
2019-01-27T10:39:09.477Z,7.50
2019-01-27T10:41:39.362Z,2.97
2019-01-27T10:44:09.486Z,7.00
2019-01-27T10:46:58.057Z,5.47
2019-01-27T10:49:27.929Z,7.07
2019-01-27T10:52:00.468Z,5.40
2019-01-27T10:54:36.023Z,1.87
2019-01-27T10:57:08.871Z,5.57
2019-01-27T10:59:41.753Z,5.23
2019-01-27T11:02:14.425Z,4.03
2019-01-27T11:04:47.318Z,6.77
2019-01-27T11:07:20.190Z,3.97
2019-01-27T11:09:50.053Z,2.30
2019-01-27T11:12:19.934Z,7.17
2019-01-27T11:14:49.808Z,2.63
2019-01-27T11:17:36.231Z,2.60
2019-01-27T11:20:18.666Z,4.87
2019-01-27T11:22:48.550Z,4.47
2019-01-27T11:25:21.362Z,3.87
2019-01-27T11:27:51.570Z,4.07
2019-01-27T11:30:21.437Z,3.90
2019-01-27T11:32:51.331Z,2.47
2019-01-27T11:35:23.909Z,5.60
2019-01-27T11:37:53.779Z,2.33
2019-01-27T11:40:23.658Z,2.97
2019-01-27T11:42:53.529Z,4.37
2019-01-27T11:45:23.409Z,5.03
2019-01-27T11:48:09.774Z,7.60
2019-01-27T11:50:38.881Z,5.53
2019-01-27T11:53:07.125Z,3.73
2019-01-27T11:55:35.357Z,3.60
2019-01-27T11:58:03.668Z,4.33
2019-01-27T12:00:33.540Z,4.70
2019-01-27T12:03:01.779Z,6.53
2019-01-27T12:05:30.016Z,8.17
2019-01-27T12:07:58.249Z,4.30
2019-01-27T12:10:26.534Z,4.27
2019-01-27T12:12:54.819Z,3.43
2019-01-27T12:15:23.114Z,8.07
2019-01-27T12:17:51.351Z,6.03
2019-01-27T12:20:19.589Z,5.67
2019-01-27T12:22:47.871Z,3.83
2019-01-27T12:25:17.241Z,6.33
2019-01-27T12:27:45.473Z,3.80
2019-01-27T12:30:18.867Z,3.63
2019-01-27T12:32:47.173Z,5.47
2019-01-27T12:35:15.473Z,3.60
2019-01-27T12:37:43.936Z,4.30
2019-01-27T12:40:16.274Z,6.57
2019-01-27T12:42:44.500Z,9.97
2019-01-27T12:45:14.785Z,4.80
2019-01-27T12:47:43.022Z,8.40
2019-01-27T12:50:13.405Z,5.07
2019-01-27T12:52:41.637Z,5.03
2019-01-27T12:55:14.078Z,3.40
2019-01-27T12:57:42.313Z,4.90
2019-01-27T13:00:28.906Z,5.63
2019-01-27T13:02:57.137Z,6.03
2019-01-27T13:05:25.379Z,8.83
2019-01-27T13:07:53.617Z,9.90
2019-01-27T13:10:21.905Z,6.43
2019-01-27T13:12:50.133Z,4.43
2019-01-27T13:15:20.302Z,8.77
2019-01-27T13:17:49.122Z,5.73
2019-01-27T13:20:17.673Z,1.93
2019-01-27T13:22:45.913Z,5.00
2019-01-27T13:25:20.314Z,7.23
2019-01-27T13:27:48.553Z,10.50
2019-01-27T13:30:25.365Z,3.73
2019-01-27T13:32:53.604Z,6.57
2019-01-27T13:35:22.273Z,5.40
2019-01-27T13:37:50.517Z,4.23
2019-01-27T13:40:21.410Z,6.50
2019-01-27T13:42:50.021Z,8.73
2019-01-27T13:45:29.666Z,5.43
2019-01-27T13:47:59.214Z,3.80
2019-01-27T13:50:27.902Z,2.83
2019-01-27T13:52:56.149Z,2.83
2019-01-27T13:55:27.184Z,4.47
2019-01-27T13:57:55.439Z,7.20
2019-01-27T14:00:34.961Z,4.57
2019-01-27T14:03:03.207Z,4.27
2019-01-27T14:05:31.452Z,3.87
2019-01-27T14:07:59.743Z,3.77
2019-01-27T14:10:29.361Z,3.77
2019-01-27T14:12:57.585Z,2.90
2019-01-27T14:15:34.528Z,2.73
2019-01-27T14:18:02.895Z,2.23
2019-01-27T14:20:31.176Z,2.53
2019-01-27T14:22:59.444Z,7.23
2019-01-27T14:25:29.452Z,6.20
2019-01-27T14:27:57.695Z,2.53
2019-01-27T14:30:34.591Z,2.47
2019-01-27T14:33:02.837Z,2.53
2019-01-27T14:35:31.070Z,2.17
2019-01-27T14:37:59.313Z,3.93
2019-01-27T14:40:29.585Z,1.73
2019-01-27T14:42:57.836Z,2.27
2019-01-27T14:45:30.905Z,1.67
2019-01-27T14:48:00.210Z,2.63
2019-01-27T14:50:37.201Z,2.63
2019-01-27T14:53:05.966Z,2.70
2019-01-27T14:55:34.201Z,2.20
2019-01-27T14:58:02.438Z,2.97
2019-01-27T15:00:36.670Z,3.13
2019-01-27T15:03:06.050Z,2.67
2019-01-27T15:05:34.621Z,3.37
2019-01-27T15:08:02.871Z,3.23
2019-01-27T15:10:31.110Z,2.20
2019-01-27T15:12:59.353Z,3.13
2019-01-27T15:15:27.601Z,1.27
2019-01-27T15:17:55.867Z,2.93
2019-01-27T15:20:35.788Z,1.87
2019-01-27T15:23:04.410Z,1.83
2019-01-27T15:25:32.657Z,4.13
2019-01-27T15:28:00.905Z,4.73
2019-01-27T15:30:32.038Z,3.23
2019-01-27T15:33:00.335Z,3.77
2019-01-27T15:35:28.566Z,5.60
2019-01-27T15:37:56.805Z,3.57
2019-01-27T15:40:25.060Z,1.10
2019-01-27T15:42:53.288Z,1.50
2019-01-27T15:45:24.137Z,3.40
2019-01-27T15:47:52.360Z,1.50
2019-01-27T15:50:31.485Z,1.53
2019-01-27T15:52:59.718Z,2.70
2019-01-27T15:55:27.961Z,4.20
2019-01-27T15:57:56.199Z,2.73
2019-01-27T16:00:29.774Z,1.50
2019-01-27T16:02:58.003Z,1.20
2019-01-27T16:05:26.245Z,2.27
2019-01-27T16:07:54.479Z,1.43
2019-01-27T16:10:24.268Z,2.30
2019-01-27T16:12:53.134Z,1.90
2019-01-27T16:15:24.117Z,2.23
2019-01-27T16:17:52.353Z,1.83
2019-01-27T16:20:20.765Z,1.83
2019-01-27T16:22:50.642Z,4.63
2019-01-27T16:25:18.885Z,2.87
2019-01-27T16:27:47.162Z,3.47
2019-01-27T16:30:18.778Z,3.77
2019-01-27T16:32:47.020Z,2.00
2019-01-27T16:35:15.274Z,2.17
2019-01-27T16:37:43.510Z,3.57
2019-01-27T16:40:13.998Z,3.27
2019-01-27T16:42:42.229Z,5.03
2019-01-27T16:45:13.754Z,1.83
2019-01-27T16:47:41.969Z,5.10
2019-01-27T16:50:13.896Z,2.23
2019-01-27T16:52:42.293Z,4.83
2019-01-27T16:55:16.402Z,2.73
2019-01-27T16:57:44.965Z,3.97
2019-01-27T17:00:16.461Z,6.23
2019-01-27T17:02:44.741Z,3.60
2019-01-27T17:05:14.929Z,1.47
2019-01-27T17:07:43.498Z,4.27
2019-01-27T17:10:14.982Z,3.80
2019-01-27T17:12:43.222Z,3.50
2019-01-27T17:15:12.514Z,1.77
2019-01-27T17:17:40.747Z,2.03
2019-01-27T17:20:17.381Z,5.00
2019-01-27T17:22:45.617Z,2.17
2019-01-27T17:25:14.027Z,4.63
2019-01-27T17:27:42.409Z,1.93
2019-01-27T17:30:14.025Z,1.13
2019-01-27T17:32:42.257Z,2.00
2019-01-27T17:35:15.017Z,143.03
2019-01-27T17:37:43.417Z,104.50
2019-01-27T17:40:16.594Z,85.13
2019-01-27T17:42:44.938Z,49.07
2019-01-27T17:45:18.333Z,24.53
2019-01-27T17:47:46.592Z,28.07
2019-01-27T17:50:19.834Z,22.07
2019-01-27T17:52:49.150Z,14.43
2019-01-27T17:55:39.542Z,19.13
2019-01-27T17:58:12.192Z,18.77
2019-01-27T18:00:42.098Z,21.00
2019-01-27T18:03:12.099Z,17.27
2019-01-27T18:05:42.240Z,10.90
2019-01-27T18:08:12.173Z,13.10
2019-01-27T18:10:42.133Z,14.10
2019-01-27T18:13:12.030Z,11.33
2019-01-27T18:15:45.512Z,11.80
2019-01-27T18:18:14.581Z,15.53
2019-01-27T18:20:43.057Z,13.20
2019-01-27T18:23:11.334Z,9.50
2019-01-27T18:25:39.591Z,9.80
2019-01-27T18:28:07.835Z,10.53
2019-01-27T18:30:36.057Z,10.30
2019-01-27T18:33:04.301Z,13.40
2019-01-27T18:35:32.541Z,11.80
2019-01-27T18:38:00.794Z,10.60
2019-01-27T18:40:29.037Z,10.53
2019-01-27T18:42:57.282Z,9.07
2019-01-27T18:45:25.522Z,11.43
2019-01-27T18:47:53.762Z,8.07
2019-01-27T18:50:22.082Z,14.23
2019-01-27T18:52:51.966Z,11.07
2019-01-27T18:55:21.838Z,8.93
2019-01-27T18:57:51.725Z,10.03
2019-01-27T19:00:24.553Z,7.83
2019-01-27T19:03:03.433Z,9.33
2019-01-27T19:05:42.133Z,11.33
2019-01-27T19:08:18.066Z,7.27
2019-01-27T19:11:04.124Z,8.27
2019-01-27T19:13:34.027Z,8.03
2019-01-27T19:16:03.882Z,8.20
2019-01-27T19:18:50.362Z,9.37
2019-01-27T19:21:26.414Z,11.50
2019-01-27T19:23:59.206Z,10.67
2019-01-27T19:26:29.430Z,10.10
2019-01-27T19:28:59.305Z,7.27
2019-01-27T19:31:45.655Z,9.10
2019-01-27T19:34:30.766Z,6.70
2019-01-27T19:37:00.641Z,5.77
2019-01-27T19:39:39.475Z,6.67
2019-01-27T19:42:09.921Z,9.23
2019-01-27T19:44:39.806Z,4.97
2019-01-27T19:47:09.690Z,6.77
2019-01-27T19:49:51.773Z,7.90
2019-01-27T19:52:21.913Z,12.73
2019-01-27T19:54:51.801Z,6.43
2019-01-27T19:57:24.654Z,7.87
2019-01-27T20:00:00.477Z,5.10
2019-01-27T20:02:30.353Z,5.37
2019-01-27T20:05:02.932Z,6.53
2019-01-27T20:07:35.491Z,4.50
2019-01-27T20:10:19.520Z,6.67
2019-01-27T20:13:08.678Z,5.47
2019-01-27T20:15:43.054Z,6.47
2019-01-27T20:18:12.922Z,5.10
2019-01-27T20:20:52.125Z,7.50
2019-01-27T20:23:22.226Z,4.73
2019-01-27T20:26:08.297Z,8.87
2019-01-27T20:28:56.060Z,4.27
2019-01-27T20:31:32.017Z,7.53
2019-01-27T20:34:16.738Z,9.30
2019-01-27T20:37:02.874Z,16.83
2019-01-27T20:39:38.785Z,9.50
2019-01-27T20:42:08.666Z,24.80
2019-01-27T20:44:40.937Z,17.33
2019-01-27T20:47:19.548Z,13.10
2019-01-27T20:49:49.417Z,16.90
2019-01-27T20:52:25.120Z,14.37
2019-01-27T20:55:13.037Z,15.93
2019-01-27T20:57:48.993Z,23.80
2019-01-27T21:00:19.516Z,12.13
2019-01-27T21:03:01.305Z,8.03
2019-01-27T21:05:40.403Z,6.80
2019-01-27T21:08:26.661Z,4.40
2019-01-27T21:10:59.489Z,7.67
2019-01-27T21:13:29.372Z,9.63
2019-01-27T21:16:05.067Z,7.60
2019-01-27T21:18:34.941Z,8.28
2019-01-27T21:21:03.189Z,9.33
2019-01-27T21:23:31.426Z,10.00
2019-01-27T21:25:59.706Z,6.40
2019-01-27T21:28:27.937Z,7.97
2019-01-27T21:30:56.184Z,8.20
2019-01-27T21:33:24.417Z,6.30
2019-01-27T21:35:52.653Z,7.83
2019-01-27T21:38:21.153Z,7.20
2019-01-27T21:40:49.390Z,6.03
2019-01-27T21:43:18.310Z,6.87
2019-01-27T21:45:46.537Z,7.10
2019-01-27T21:48:14.781Z,8.63
2019-01-27T21:50:43.017Z,15.37
2019-01-27T21:53:11.261Z,7.33
2019-01-27T21:55:39.493Z,4.43
2019-01-27T21:58:07.736Z,4.30
2019-01-27T22:00:35.961Z,4.80
2019-01-27T22:03:04.206Z,5.20
2019-01-27T22:05:32.439Z,5.57
2019-01-27T22:08:00.688Z,5.20
2019-01-27T22:10:28.920Z,5.63
2019-01-27T22:12:57.157Z,5.37
2019-01-27T22:15:25.399Z,9.77
2019-01-27T22:17:53.642Z,5.20
2019-01-27T22:20:21.870Z,6.70
2019-01-27T22:22:50.119Z,9.17
2019-01-27T22:25:18.357Z,4.53
2019-01-27T22:27:46.616Z,6.23
2019-01-27T22:30:17.194Z,5.40
2019-01-27T22:32:45.443Z,5.67
2019-01-27T22:35:13.715Z,6.07
2019-01-27T22:37:42.001Z,6.63
2019-01-27T22:40:12.688Z,5.20
2019-01-27T22:42:40.921Z,6.10
2019-01-27T22:45:14.084Z,8.27
2019-01-27T22:47:42.301Z,3.73
2019-01-27T22:50:13.563Z,5.20
2019-01-27T22:52:41.802Z,4.73
2019-01-27T22:55:10.806Z,4.57
2019-01-27T22:57:39.034Z,5.60
2019-01-27T23:00:27.209Z,4.13
2019-01-27T23:02:55.469Z,6.47
2019-01-27T23:05:23.705Z,4.77
2019-01-27T23:07:51.942Z,4.40
2019-01-27T23:10:20.196Z,4.47
2019-01-27T23:12:48.425Z,2.87
2019-01-27T23:15:16.686Z,3.70
2019-01-27T23:17:44.922Z,4.27
2019-01-27T23:20:13.413Z,2.73
2019-01-27T23:22:41.645Z,4.63
2019-01-27T23:25:09.885Z,7.67
2019-01-27T23:27:38.129Z,3.43
2019-01-27T23:30:08.319Z,4.20
2019-01-27T23:32:36.553Z,4.23
2019-01-27T23:35:06.245Z,4.10
2019-01-27T23:37:34.481Z,4.00
2019-01-27T23:40:02.722Z,3.63
2019-01-27T23:42:30.958Z,5.67
2019-01-27T23:44:59.214Z,3.47
2019-01-27T23:47:27.437Z,4.53
2019-01-27T23:49:55.681Z,5.30
2019-01-27T23:52:23.908Z,3.90
2019-01-27T23:54:52.161Z,2.97
2019-01-27T23:57:20.397Z,3.90
2019-01-27T23:59:48.633Z,4.03
